createdAt,value
2023-04-28T00:00:09.545Z,982.15
2023-04-28T00:01:09.531Z,982.17
2023-04-28T00:02:09.529Z,982.20
2023-04-28T00:03:09.716Z,982.17
2023-04-28T00:04:09.781Z,982.25
2023-04-28T00:05:09.559Z,982.27
2023-04-28T00:06:09.494Z,982.29
2023-04-28T00:07:09.466Z,982.26
2023-04-28T00:08:09.457Z,982.24
2023-04-28T00:09:09.462Z,982.21
2023-04-28T00:10:09.449Z,982.19
2023-04-28T00:11:09.439Z,982.19
2023-04-28T00:12:09.414Z,982.13
2023-04-28T00:13:09.424Z,982.10
2023-04-28T00:14:09.388Z,982.13
2023-04-28T00:15:09.392Z,982.08
2023-04-28T00:16:09.413Z,982.05
2023-04-28T00:17:09.411Z,982.05
2023-04-28T00:18:09.409Z,982.10
2023-04-28T00:19:09.402Z,982.08
2023-04-28T00:20:10.055Z,982.11
2023-04-28T00:21:09.359Z,982.15
2023-04-28T00:22:09.308Z,982.17
2023-04-28T00:23:09.391Z,982.14
2023-04-28T00:24:09.285Z,982.15
2023-04-28T00:25:09.452Z,982.06
2023-04-28T00:26:09.280Z,982.06
2023-04-28T00:27:09.258Z,982.00
2023-04-28T00:28:11.657Z,982.00
2023-04-28T00:29:09.252Z,981.98
2023-04-28T00:30:09.231Z,981.97
2023-04-28T00:31:09.240Z,982.02
2023-04-28T00:32:09.344Z,982.04
2023-04-28T00:33:09.219Z,981.99
2023-04-28T00:34:09.183Z,982.02
2023-04-28T00:35:09.170Z,981.99
2023-04-28T00:36:09.158Z,981.98
2023-04-28T00:37:09.158Z,981.97
2023-04-28T00:38:09.145Z,981.95
2023-04-28T00:39:09.145Z,981.94
2023-04-28T00:40:09.141Z,981.99
2023-04-28T00:41:09.112Z,982.00
2023-04-28T00:42:09.100Z,982.04
2023-04-28T00:43:09.084Z,982.08
2023-04-28T00:44:09.090Z,982.05
2023-04-28T00:45:09.062Z,982.00
2023-04-28T00:46:09.134Z,981.99
2023-04-28T00:47:09.048Z,981.95
2023-04-28T00:48:09.130Z,981.98
2023-04-28T00:49:09.035Z,981.93
2023-04-28T00:50:09.017Z,981.94
2023-04-28T00:51:09.026Z,981.90
2023-04-28T00:52:08.982Z,981.88
2023-04-28T00:53:08.992Z,981.90
2023-04-28T00:54:08.977Z,981.88
2023-04-28T00:55:08.969Z,981.85
2023-04-28T00:56:08.954Z,981.93
2023-04-28T00:57:08.969Z,981.91
2023-04-28T00:58:08.942Z,981.89
2023-04-28T00:59:08.935Z,981.96
2023-04-28T01:00:08.933Z,981.95
2023-04-28T01:01:08.966Z,981.91
2023-04-28T01:02:08.914Z,981.87
2023-04-28T01:03:09.007Z,981.87
2023-04-28T01:04:09.045Z,981.94
2023-04-28T01:05:08.856Z,981.90
2023-04-28T01:06:08.848Z,981.90
2023-04-28T01:07:09.138Z,981.85
2023-04-28T01:08:08.826Z,981.81
2023-04-28T01:09:08.823Z,981.82
2023-04-28T01:10:08.802Z,981.79
2023-04-28T01:11:08.803Z,981.83
2023-04-28T01:12:08.781Z,981.84
2023-04-28T01:13:08.782Z,981.85
2023-04-28T01:14:09.143Z,981.78
2023-04-28T01:15:08.779Z,981.81
2023-04-28T01:16:09.092Z,981.78
2023-04-28T01:17:08.757Z,981.76
2023-04-28T01:18:08.801Z,981.76
2023-04-28T01:19:08.712Z,981.74
2023-04-28T01:20:08.693Z,981.78
2023-04-28T01:21:08.694Z,981.69
2023-04-28T01:22:08.679Z,981.72
2023-04-28T01:23:08.687Z,981.65
2023-04-28T01:24:08.642Z,981.65
2023-04-28T01:25:08.672Z,981.63
2023-04-28T01:26:08.648Z,981.60
2023-04-28T01:27:08.636Z,981.61
2023-04-28T01:28:08.616Z,981.55
2023-04-28T01:29:08.621Z,981.58
2023-04-28T01:30:08.598Z,981.56
2023-04-28T01:31:08.663Z,981.54
2023-04-28T01:32:08.568Z,981.45
2023-04-28T01:33:08.618Z,981.44
2023-04-28T01:34:08.659Z,981.44
2023-04-28T01:35:08.572Z,981.43
2023-04-28T01:36:08.523Z,981.43
2023-04-28T01:37:08.545Z,981.49
2023-04-28T01:38:08.533Z,981.54
2023-04-28T01:39:08.544Z,981.52
2023-04-28T01:40:08.481Z,981.52
2023-04-28T01:41:08.483Z,981.50
2023-04-28T01:42:08.470Z,981.53
2023-04-28T01:43:08.465Z,981.50
2023-04-28T01:44:08.476Z,981.44
2023-04-28T01:45:08.489Z,981.43
2023-04-28T01:46:08.460Z,981.49
2023-04-28T01:47:08.409Z,981.51
2023-04-28T01:48:08.548Z,981.47
2023-04-28T01:49:08.534Z,981.50
2023-04-28T01:50:08.417Z,981.38
2023-04-28T01:51:08.408Z,981.52
2023-04-28T01:52:08.365Z,981.54
2023-04-28T01:53:08.362Z,981.55
2023-04-28T01:54:08.346Z,981.48
2023-04-28T01:55:08.377Z,981.49
2023-04-28T01:56:08.333Z,981.40
2023-04-28T01:57:08.300Z,981.46
2023-04-28T01:58:08.316Z,981.40
2023-04-28T01:59:08.278Z,981.35
2023-04-28T02:00:08.552Z,981.33
2023-04-28T02:01:08.277Z,981.34
2023-04-28T02:02:08.258Z,981.27
2023-04-28T02:03:08.361Z,981.29
2023-04-28T02:04:08.285Z,981.22
2023-04-28T02:05:08.216Z,981.26
2023-04-28T02:06:08.225Z,981.27
2023-04-28T02:07:08.205Z,981.35
2023-04-28T02:08:08.191Z,981.36
2023-04-28T02:09:08.189Z,981.32
2023-04-28T02:10:08.156Z,981.30
2023-04-28T02:11:08.161Z,981.28
2023-04-28T02:12:08.164Z,981.25
2023-04-28T02:13:08.131Z,981.27
2023-04-28T02:14:08.146Z,981.20
2023-04-28T02:15:08.134Z,981.23
2023-04-28T02:16:08.127Z,981.21
2023-04-28T02:17:08.105Z,981.21
2023-04-28T02:18:08.148Z,981.21
2023-04-28T02:19:08.097Z,981.25
2023-04-28T02:20:08.048Z,981.26
2023-04-28T02:21:08.059Z,981.25
2023-04-28T02:22:08.044Z,981.22
2023-04-28T02:23:08.083Z,981.26
2023-04-28T02:24:08.034Z,981.27
2023-04-28T02:25:08.009Z,981.26
2023-04-28T02:26:08.002Z,981.27
2023-04-28T02:27:07.996Z,981.28
2023-04-28T02:28:07.978Z,981.20
2023-04-28T02:29:08.007Z,981.24
2023-04-28T02:30:07.964Z,981.22
2023-04-28T02:31:08.086Z,981.16
2023-04-28T02:32:07.921Z,981.15
2023-04-28T02:33:07.941Z,981.17
2023-04-28T02:34:07.924Z,981.13
2023-04-28T02:35:07.912Z,981.08
2023-04-28T02:36:07.900Z,981.07
2023-04-28T02:37:07.886Z,981.01
2023-04-28T02:38:07.870Z,980.95
2023-04-28T02:39:07.860Z,981.02
2023-04-28T02:40:08.123Z,981.02
2023-04-28T02:41:07.848Z,981.03
2023-04-28T02:42:07.823Z,981.09
2023-04-28T02:43:07.837Z,981.10
2023-04-28T02:44:07.812Z,981.15
2023-04-28T02:45:07.798Z,981.16
2023-04-28T02:46:07.890Z,981.18
2023-04-28T02:47:07.878Z,981.16
2023-04-28T02:48:07.777Z,981.14
2023-04-28T02:49:07.743Z,981.19
2023-04-28T02:50:08.009Z,981.14
2023-04-28T02:51:07.724Z,981.21
2023-04-28T02:52:07.710Z,981.19
2023-04-28T02:53:07.968Z,981.21
2023-04-28T02:54:07.682Z,981.18
2023-04-28T02:55:07.694Z,981.15
2023-04-28T02:56:07.686Z,981.18
2023-04-28T02:57:07.659Z,981.22
2023-04-28T02:58:07.661Z,981.19
2023-04-28T02:59:07.652Z,981.23
2023-04-28T03:00:08.892Z,981.23
2023-04-28T03:01:07.740Z,981.28
2023-04-28T03:02:08.374Z,981.26
2023-04-28T03:03:07.795Z,981.32
2023-04-28T03:04:07.875Z,981.34
2023-04-28T03:05:07.596Z,981.35
2023-04-28T03:06:07.603Z,981.37
2023-04-28T03:07:07.574Z,981.34
2023-04-28T03:08:07.577Z,981.34
2023-04-28T03:09:07.532Z,981.31
2023-04-28T03:10:07.676Z,981.34
2023-04-28T03:11:07.525Z,981.44
2023-04-28T03:12:07.488Z,981.53
2023-04-28T03:13:07.498Z,981.38
2023-04-28T03:14:07.488Z,981.34
2023-04-28T03:15:07.476Z,981.37
2023-04-28T03:16:07.500Z,981.36
2023-04-28T03:17:07.460Z,981.41
2023-04-28T03:18:07.517Z,981.33
2023-04-28T03:19:07.444Z,981.34
2023-04-28T03:20:07.433Z,981.31
2023-04-28T03:21:07.430Z,981.26
2023-04-28T03:22:07.442Z,981.21
2023-04-28T03:23:07.423Z,981.15
2023-04-28T03:24:07.387Z,981.12
2023-04-28T03:25:07.367Z,981.09
2023-04-28T03:26:07.362Z,981.05
2023-04-28T03:27:07.358Z,981.08
2023-04-28T03:28:07.337Z,981.04
2023-04-28T03:29:07.342Z,981.03
2023-04-28T03:30:07.688Z,981.02
2023-04-28T03:31:07.310Z,981.07
2023-04-28T03:32:07.325Z,981.09
2023-04-28T03:33:07.361Z,981.08
2023-04-28T03:34:07.272Z,981.01
2023-04-28T03:35:07.252Z,981.01
2023-04-28T03:36:07.253Z,980.96
2023-04-28T03:37:07.267Z,980.87
2023-04-28T03:38:07.215Z,980.89
2023-04-28T03:39:07.222Z,980.91
2023-04-28T03:40:07.204Z,980.97
2023-04-28T03:41:07.210Z,981.03
2023-04-28T03:42:07.188Z,981.09
2023-04-28T03:43:07.202Z,981.04
2023-04-28T03:44:07.164Z,981.11
2023-04-28T03:45:07.433Z,981.04
2023-04-28T03:46:07.207Z,980.99
2023-04-28T03:47:07.153Z,981.00
2023-04-28T03:48:07.200Z,981.00
2023-04-28T03:49:07.116Z,981.04
2023-04-28T03:50:07.114Z,981.04
2023-04-28T03:51:07.118Z,980.99
2023-04-28T03:52:07.081Z,980.92
2023-04-28T03:53:07.079Z,980.90
2023-04-28T03:54:07.061Z,980.89
2023-04-28T03:55:07.043Z,980.87
2023-04-28T03:56:07.295Z,980.91
2023-04-28T03:57:07.030Z,980.84
2023-04-28T03:58:07.026Z,980.84
2023-04-28T03:59:07.005Z,980.84
2023-04-28T04:00:09.017Z,980.81
2023-04-28T04:01:07.255Z,980.82
2023-04-28T04:02:07.009Z,980.88
2023-04-28T04:03:07.062Z,980.91
2023-04-28T04:04:07.187Z,980.87
2023-04-28T04:05:07.240Z,980.85
2023-04-28T04:06:06.950Z,980.90
2023-04-28T04:07:06.939Z,980.85
2023-04-28T04:08:06.905Z,980.83
2023-04-28T04:09:06.901Z,980.81
2023-04-28T04:10:06.899Z,980.80
2023-04-28T04:11:06.962Z,980.84
2023-04-28T04:12:06.869Z,980.84
2023-04-28T04:13:06.882Z,980.84
2023-04-28T04:14:06.862Z,980.86
2023-04-28T04:15:06.831Z,980.84
2023-04-28T04:16:06.893Z,980.87
2023-04-28T04:17:06.838Z,980.82
2023-04-28T04:18:06.846Z,980.89
2023-04-28T04:19:06.815Z,980.78
2023-04-28T04:20:06.777Z,980.78
2023-04-28T04:21:07.016Z,980.82
2023-04-28T04:22:07.098Z,980.80
2023-04-28T04:23:07.087Z,980.77
2023-04-28T04:24:07.353Z,980.86
2023-04-28T04:25:06.736Z,980.80
2023-04-28T04:26:06.755Z,980.82
2023-04-28T04:27:06.745Z,980.76
2023-04-28T04:28:06.714Z,980.86
2023-04-28T04:29:06.683Z,980.73
2023-04-28T04:30:06.688Z,980.77
2023-04-28T04:31:06.755Z,980.83
2023-04-28T04:32:06.705Z,980.79
2023-04-28T04:33:06.673Z,980.75
2023-04-28T04:34:06.642Z,980.77
2023-04-28T04:35:06.669Z,980.82
2023-04-28T04:36:06.629Z,980.85
2023-04-28T04:37:06.613Z,980.85
2023-04-28T04:38:06.694Z,980.85
2023-04-28T04:39:06.584Z,980.84
2023-04-28T04:40:06.578Z,980.89
2023-04-28T04:41:06.832Z,980.85
2023-04-28T04:42:22.680Z,980.87
2023-04-28T04:43:07.527Z,980.87
2023-04-28T04:44:06.533Z,980.81
2023-04-28T04:45:06.803Z,980.84
2023-04-28T04:46:06.847Z,980.78
2023-04-28T04:47:06.511Z,980.78
2023-04-28T04:48:06.528Z,980.73
2023-04-28T04:49:06.491Z,980.79
2023-04-28T04:50:06.472Z,980.73
2023-04-28T04:51:06.481Z,980.77
2023-04-28T04:52:07.278Z,980.79
2023-04-28T04:53:07.933Z,980.80
2023-04-28T04:54:07.409Z,980.77
2023-04-28T04:55:06.419Z,980.81
2023-04-28T04:56:07.121Z,980.74
2023-04-28T04:57:06.408Z,980.78
2023-04-28T04:58:07.102Z,980.77
2023-04-28T04:59:06.372Z,980.75
2023-04-28T05:00:06.546Z,980.69
2023-04-28T05:01:06.350Z,980.68
2023-04-28T05:02:06.373Z,980.71
2023-04-28T05:03:06.640Z,980.68
2023-04-28T05:04:06.473Z,980.69
2023-04-28T05:05:19.585Z,980.72
2023-04-28T05:06:07.581Z,980.57
2023-04-28T05:07:06.285Z,980.64
2023-04-28T05:08:06.284Z,980.59
2023-04-28T05:09:06.266Z,980.68
2023-04-28T05:10:06.286Z,980.62
2023-04-28T05:11:06.261Z,980.63
2023-04-28T05:12:06.241Z,980.60
2023-04-28T05:13:06.244Z,980.72
2023-04-28T05:14:06.232Z,980.72
2023-04-28T05:15:06.509Z,980.80
2023-04-28T05:16:06.265Z,980.76
2023-04-28T05:17:06.195Z,980.80
2023-04-28T05:18:06.210Z,980.75
2023-04-28T05:19:06.154Z,980.79
2023-04-28T05:20:06.909Z,980.77
2023-04-28T05:21:06.133Z,980.77
2023-04-28T05:22:06.114Z,980.77
2023-04-28T05:23:06.124Z,980.73
2023-04-28T05:24:06.145Z,980.72
2023-04-28T05:25:06.104Z,980.68
2023-04-28T05:26:06.115Z,980.73
2023-04-28T05:27:06.380Z,980.82
2023-04-28T05:28:06.220Z,980.77
2023-04-28T05:29:06.078Z,980.76
2023-04-28T05:30:06.097Z,980.79
2023-04-28T05:31:06.045Z,980.74
2023-04-28T05:32:06.177Z,980.82
2023-04-28T05:33:06.122Z,980.83
2023-04-28T05:34:06.007Z,980.82
2023-04-28T05:35:05.992Z,980.85
2023-04-28T05:36:06.207Z,980.85
2023-04-28T05:37:05.993Z,980.81
2023-04-28T05:38:05.949Z,980.84
2023-04-28T05:39:06.064Z,980.87
2023-04-28T05:40:06.059Z,980.86
2023-04-28T05:41:05.913Z,980.85
2023-04-28T05:42:05.922Z,980.89
2023-04-28T05:43:06.367Z,980.86
2023-04-28T05:44:05.880Z,980.86
2023-04-28T05:45:05.897Z,980.83
2023-04-28T05:46:12.044Z,980.81
2023-04-28T05:47:07.126Z,980.84
2023-04-28T05:48:05.895Z,980.86
2023-04-28T05:49:05.970Z,980.82
2023-04-28T05:50:05.841Z,980.88
2023-04-28T05:51:05.836Z,980.81
2023-04-28T05:52:05.812Z,980.85
2023-04-28T05:53:05.906Z,980.83
2023-04-28T05:54:06.109Z,980.86
2023-04-28T05:55:05.769Z,980.79
2023-04-28T05:56:05.777Z,980.80
2023-04-28T05:57:05.751Z,980.77
2023-04-28T05:58:06.535Z,980.80
2023-04-28T05:59:05.719Z,980.81
2023-04-28T06:00:05.761Z,980.72
2023-04-28T06:01:05.720Z,980.71
2023-04-28T06:02:05.770Z,980.74
2023-04-28T06:03:05.869Z,980.78
2023-04-28T06:04:06.240Z,980.73
2023-04-28T06:05:05.797Z,980.74
2023-04-28T06:06:09.791Z,980.78
2023-04-28T06:07:05.649Z,980.78
2023-04-28T06:08:05.631Z,980.73
2023-04-28T06:09:05.650Z,980.78
2023-04-28T06:10:05.880Z,980.69
2023-04-28T06:11:05.620Z,980.75
2023-04-28T06:12:05.603Z,980.68
2023-04-28T06:13:05.606Z,980.60
2023-04-28T06:14:05.584Z,980.68
2023-04-28T06:15:05.844Z,980.66
2023-04-28T06:16:05.599Z,980.67
2023-04-28T06:17:06.426Z,980.67
2023-04-28T06:18:05.593Z,980.67
2023-04-28T06:19:05.522Z,980.71
2023-04-28T06:20:05.786Z,980.77
2023-04-28T06:21:05.501Z,980.77
2023-04-28T06:22:05.498Z,980.76
2023-04-28T06:23:05.474Z,980.82
2023-04-28T06:24:05.481Z,980.72
2023-04-28T06:25:07.715Z,980.79
2023-04-28T06:26:05.442Z,980.71
2023-04-28T06:27:05.438Z,980.71
2023-04-28T06:28:05.421Z,980.74
2023-04-28T06:29:05.425Z,980.77
2023-04-28T06:30:05.489Z,980.74
2023-04-28T06:31:05.453Z,980.70
2023-04-28T06:32:05.403Z,980.73
2023-04-28T06:33:05.449Z,980.73
2023-04-28T06:34:05.645Z,980.76
2023-04-28T06:35:05.356Z,980.76
2023-04-28T06:36:05.346Z,980.68
2023-04-28T06:37:06.278Z,980.66
2023-04-28T06:38:05.322Z,980.60
2023-04-28T06:39:05.319Z,980.63
2023-04-28T06:40:07.209Z,980.53
2023-04-28T06:41:05.300Z,980.56
2023-04-28T06:42:05.268Z,980.56
2023-04-28T06:43:05.983Z,980.56
2023-04-28T06:44:05.270Z,980.54
2023-04-28T06:45:05.509Z,980.56
2023-04-28T06:46:05.303Z,980.53
2023-04-28T06:47:05.633Z,980.54
2023-04-28T06:48:05.267Z,980.55
2023-04-28T06:49:05.209Z,980.56
2023-04-28T06:50:08.291Z,980.57
2023-04-28T06:51:05.396Z,980.56
2023-04-28T06:52:05.190Z,980.55
2023-04-28T06:53:05.191Z,980.53
2023-04-28T06:54:05.155Z,980.54
2023-04-28T06:55:05.137Z,980.51
2023-04-28T06:56:05.419Z,980.50
2023-04-28T06:57:05.120Z,980.50
2023-04-28T06:58:05.095Z,980.53
2023-04-28T06:59:05.285Z,980.53
2023-04-28T07:00:05.657Z,980.51
2023-04-28T07:01:05.383Z,980.48
2023-04-28T07:02:05.544Z,980.51
2023-04-28T07:03:05.206Z,980.44
2023-04-28T07:04:05.430Z,980.50
2023-04-28T07:05:05.599Z,980.52
2023-04-28T07:06:05.039Z,980.45
2023-04-28T07:07:05.207Z,980.43
2023-04-28T07:08:05.065Z,980.42
2023-04-28T07:09:05.332Z,980.45
2023-04-28T07:10:08.765Z,980.45
2023-04-28T07:11:05.207Z,980.39
2023-04-28T07:12:05.218Z,980.45
2023-04-28T07:13:04.949Z,980.40
2023-04-28T07:14:04.951Z,980.45
2023-04-28T07:15:04.915Z,980.44
2023-04-28T07:16:04.978Z,980.36
2023-04-28T07:17:04.902Z,980.33
2023-04-28T07:18:04.959Z,980.39
2023-04-28T07:19:04.883Z,980.38
2023-04-28T07:20:05.167Z,980.35
2023-04-28T07:21:05.538Z,980.37
2023-04-28T07:22:04.922Z,980.38
2023-04-28T07:23:04.855Z,980.35
2023-04-28T07:24:06.463Z,980.43
2023-04-28T07:25:04.959Z,980.43
2023-04-28T07:26:04.811Z,980.39
2023-04-28T07:27:04.794Z,980.36
2023-04-28T07:28:04.800Z,980.36
2023-04-28T07:29:04.801Z,980.36
2023-04-28T07:30:18.598Z,980.35
2023-04-28T07:31:05.750Z,980.32
2023-04-28T07:32:07.350Z,980.28
2023-04-28T07:33:04.820Z,980.27
2023-04-28T07:34:04.743Z,980.22
2023-04-28T07:35:04.713Z,980.28
2023-04-28T07:36:05.482Z,980.32
2023-04-28T07:37:04.692Z,980.33
2023-04-28T07:38:06.481Z,980.29
2023-04-28T07:39:05.388Z,980.26
2023-04-28T07:40:04.665Z,980.28
2023-04-28T07:41:05.733Z,980.30
2023-04-28T07:42:04.655Z,980.31
2023-04-28T07:43:04.635Z,980.30
2023-04-28T07:44:04.634Z,980.32
2023-04-28T07:45:04.604Z,980.30
2023-04-28T07:46:04.686Z,980.29
2023-04-28T07:47:04.585Z,980.33
2023-04-28T07:48:04.593Z,980.36
2023-04-28T07:49:04.867Z,980.33
2023-04-28T07:50:04.574Z,980.30
2023-04-28T07:51:04.561Z,980.31
2023-04-28T07:52:04.557Z,980.30
2023-04-28T07:53:04.515Z,980.30
2023-04-28T07:54:06.164Z,980.30
2023-04-28T07:55:04.490Z,980.32
2023-04-28T07:56:04.467Z,980.30
2023-04-28T07:57:05.274Z,980.35
2023-04-28T07:58:04.450Z,980.34
2023-04-28T07:59:05.215Z,980.39
2023-04-28T08:00:04.458Z,980.46
2023-04-28T08:01:06.217Z,980.51
2023-04-28T08:02:04.423Z,980.51
2023-04-28T08:03:06.290Z,980.54
2023-04-28T08:04:04.738Z,980.49
2023-04-28T08:05:04.539Z,980.51
2023-04-28T08:06:04.466Z,980.55
2023-04-28T08:07:04.360Z,980.49
2023-04-28T08:08:04.576Z,980.51
2023-04-28T08:09:04.733Z,980.58
2023-04-28T08:10:04.346Z,980.56
2023-04-28T08:11:04.323Z,980.60
2023-04-28T08:12:04.306Z,980.62
2023-04-28T08:13:04.694Z,980.66
2023-04-28T08:14:04.302Z,980.70
2023-04-28T08:15:04.280Z,980.73
2023-04-28T08:16:04.306Z,980.70
2023-04-28T08:17:04.282Z,980.75
2023-04-28T08:18:05.118Z,980.77
2023-04-28T08:19:04.349Z,980.83
2023-04-28T08:20:04.221Z,980.94
2023-04-28T08:21:04.215Z,981.02
2023-04-28T08:22:04.193Z,981.00
2023-04-28T08:23:04.222Z,981.06
2023-04-28T08:24:04.192Z,981.05
2023-04-28T08:25:04.163Z,981.07
2023-04-28T08:26:04.158Z,981.09
2023-04-28T08:27:04.147Z,981.06
2023-04-28T08:28:04.178Z,980.95
2023-04-28T08:29:04.398Z,980.91
2023-04-28T08:30:04.111Z,980.90
2023-04-28T08:31:04.197Z,980.83
2023-04-28T08:32:04.094Z,980.88
2023-04-28T08:33:04.087Z,980.88
2023-04-28T08:34:05.286Z,980.81
2023-04-28T08:35:04.076Z,980.86
2023-04-28T08:36:04.047Z,980.83
2023-04-28T08:37:04.069Z,980.92
2023-04-28T08:38:04.124Z,980.93
2023-04-28T08:39:05.479Z,980.94
2023-04-28T08:40:04.031Z,980.93
2023-04-28T08:41:03.992Z,980.89
2023-04-28T08:42:03.981Z,980.87
2023-04-28T08:43:03.981Z,980.86
2023-04-28T08:44:03.990Z,980.88
2023-04-28T08:45:03.941Z,980.88
2023-04-28T08:46:03.964Z,980.86
2023-04-28T08:47:04.002Z,980.82
2023-04-28T08:48:03.958Z,980.88
2023-04-28T08:49:03.901Z,980.83
2023-04-28T08:50:04.662Z,980.88
2023-04-28T08:51:04.864Z,980.96
2023-04-28T08:52:03.893Z,981.01
2023-04-28T08:53:03.956Z,980.96
2023-04-28T08:54:24.838Z,981.00
2023-04-28T08:55:04.931Z,981.12
2023-04-28T08:56:03.862Z,981.07
2023-04-28T08:57:03.931Z,981.06
2023-04-28T08:58:03.889Z,981.08
2023-04-28T08:59:04.222Z,981.05
2023-04-28T09:00:03.801Z,981.09
2023-04-28T09:01:03.797Z,981.01
2023-04-28T09:02:05.308Z,981.03
2023-04-28T09:03:03.869Z,981.12
2023-04-28T09:04:04.236Z,981.08
2023-04-28T09:05:04.057Z,981.15
2023-04-28T09:06:03.741Z,981.16
2023-04-28T09:07:03.708Z,981.10
2023-04-28T09:08:03.707Z,981.20
2023-04-28T09:09:03.722Z,981.16
2023-04-28T09:10:03.684Z,981.17
2023-04-28T09:11:04.390Z,981.12
2023-04-28T09:12:03.692Z,981.18
2023-04-28T09:13:03.635Z,981.10
2023-04-28T09:14:03.659Z,981.12
2023-04-28T09:15:03.694Z,981.15
2023-04-28T09:16:03.710Z,981.13
2023-04-28T09:17:03.632Z,981.19
2023-04-28T09:18:03.924Z,981.15
2023-04-28T09:19:03.588Z,981.14
2023-04-28T09:20:03.601Z,981.16
2023-04-28T09:21:03.556Z,981.23
2023-04-28T09:22:10.957Z,981.22
2023-04-28T09:23:04.584Z,981.14
2023-04-28T09:24:03.828Z,981.17
2023-04-28T09:25:03.533Z,981.19
2023-04-28T09:26:03.534Z,981.20
2023-04-28T09:27:03.497Z,981.17
2023-04-28T09:28:03.497Z,981.20
2023-04-28T09:29:03.473Z,981.18
2023-04-28T09:30:03.684Z,981.18
2023-04-28T09:31:03.465Z,981.19
2023-04-28T09:32:03.500Z,981.13
2023-04-28T09:33:03.499Z,981.18
2023-04-28T09:34:03.442Z,981.20
2023-04-28T09:35:03.584Z,981.27
2023-04-28T09:36:03.734Z,981.22
2023-04-28T09:37:03.455Z,981.30
2023-04-28T09:38:03.387Z,981.31
2023-04-28T09:39:03.374Z,981.28
2023-04-28T09:40:03.369Z,981.24
2023-04-28T09:41:03.378Z,981.29
2023-04-28T09:42:03.441Z,981.20
2023-04-28T09:43:11.909Z,981.25
2023-04-28T09:44:04.319Z,981.29
2023-04-28T09:45:03.405Z,981.23
2023-04-28T09:46:04.139Z,981.25
2023-04-28T09:47:03.309Z,981.18
2023-04-28T09:48:03.348Z,981.18
2023-04-28T09:49:03.260Z,981.17
2023-04-28T09:50:03.257Z,981.14
2023-04-28T09:51:03.264Z,981.17
2023-04-28T09:52:03.295Z,981.17
2023-04-28T09:53:03.235Z,981.11
2023-04-28T09:54:03.309Z,981.09
2023-04-28T09:55:03.221Z,981.04
2023-04-28T09:56:03.426Z,981.09
2023-04-28T09:57:03.584Z,981.10
2023-04-28T09:58:03.909Z,981.12
2023-04-28T09:59:03.212Z,981.09
2023-04-28T10:00:03.241Z,981.06
2023-04-28T10:01:03.220Z,981.07
2023-04-28T10:02:12.864Z,981.09
2023-04-28T10:03:04.306Z,981.06
2023-04-28T10:04:03.967Z,981.08
2023-04-28T10:05:03.429Z,981.08
2023-04-28T10:06:03.528Z,981.00
2023-04-28T10:07:03.342Z,981.03
2023-04-28T10:08:03.801Z,981.01
2023-04-28T10:09:03.193Z,981.10
2023-04-28T10:10:03.817Z,981.06
2023-04-28T10:11:03.043Z,981.03
2023-04-28T10:12:03.744Z,981.04
2023-04-28T10:13:03.025Z,981.04
2023-04-28T10:14:03.183Z,980.97
2023-04-28T10:15:02.999Z,980.99
2023-04-28T10:16:03.050Z,980.90
2023-04-28T10:17:02.970Z,980.94
2023-04-28T10:18:02.985Z,980.93
2023-04-28T10:19:02.952Z,980.92
2023-04-28T10:20:02.943Z,980.98
2023-04-28T10:21:02.951Z,980.98
2023-04-28T10:22:02.924Z,980.93
2023-04-28T10:23:02.894Z,980.92
2023-04-28T10:24:03.449Z,980.98
2023-04-28T10:25:02.911Z,980.98
2023-04-28T10:26:04.503Z,980.94
2023-04-28T10:27:02.891Z,980.83
2023-04-28T10:28:03.516Z,980.95
2023-04-28T10:29:02.893Z,980.88
2023-04-28T10:30:03.961Z,980.99
2023-04-28T10:31:02.887Z,980.98
2023-04-28T10:32:03.523Z,980.93
2023-04-28T10:33:03.145Z,980.92
2023-04-28T10:34:03.477Z,980.95
2023-04-28T10:35:02.799Z,980.89
2023-04-28T10:36:03.500Z,980.87
2023-04-28T10:37:02.762Z,980.88
2023-04-28T10:38:03.741Z,980.88
2023-04-28T10:39:02.768Z,980.89
2023-04-28T10:40:03.466Z,980.86
2023-04-28T10:41:02.714Z,980.88
2023-04-28T10:42:03.428Z,980.83
2023-04-28T10:43:02.718Z,980.87
2023-04-28T10:44:02.712Z,980.91
2023-04-28T10:45:02.683Z,980.95
2023-04-28T10:46:03.422Z,980.93
2023-04-28T10:47:03.367Z,980.93
2023-04-28T10:48:03.398Z,980.97
2023-04-28T10:49:02.876Z,980.98
2023-04-28T10:50:03.667Z,980.92
2023-04-28T10:51:02.633Z,980.98
2023-04-28T10:52:02.659Z,981.02
2023-04-28T10:53:02.589Z,980.96
2023-04-28T10:54:02.852Z,981.04
2023-04-28T10:55:09.493Z,980.97
2023-04-28T10:56:03.580Z,981.02
2023-04-28T10:57:02.584Z,981.03
2023-04-28T10:58:02.545Z,980.88
2023-04-28T10:59:02.554Z,980.96
2023-04-28T11:00:02.517Z,980.99
2023-04-28T11:01:02.521Z,980.95
2023-04-28T11:02:02.562Z,980.95
2023-04-28T11:03:02.788Z,980.98
2023-04-28T11:04:02.779Z,980.96
2023-04-28T11:05:02.616Z,980.98
2023-04-28T11:06:02.466Z,980.91
2023-04-28T11:07:02.452Z,980.92
2023-04-28T11:08:02.451Z,980.95
2023-04-28T11:09:02.462Z,980.96
2023-04-28T11:10:02.394Z,980.87
2023-04-28T11:11:02.414Z,980.94
2023-04-28T11:12:02.407Z,980.83
2023-04-28T11:13:03.110Z,980.87
2023-04-28T11:14:03.241Z,980.91
2023-04-28T11:15:02.420Z,980.88
2023-04-28T11:16:02.464Z,980.84
2023-04-28T11:17:02.439Z,980.88
2023-04-28T11:18:02.465Z,980.98
2023-04-28T11:19:03.854Z,980.92
2023-04-28T11:20:02.452Z,980.96
2023-04-28T11:21:02.972Z,980.93
2023-04-28T11:22:02.308Z,981.03
2023-04-28T11:23:02.503Z,980.92
2023-04-28T11:24:02.322Z,980.89
2023-04-28T11:25:02.995Z,980.97
2023-04-28T11:26:02.250Z,980.90
2023-04-28T11:27:02.386Z,980.96
2023-04-28T11:28:05.179Z,980.93
2023-04-28T11:29:02.921Z,980.96
2023-04-28T11:30:02.269Z,980.95
2023-04-28T11:31:02.477Z,980.99
2023-04-28T11:32:02.187Z,980.94
2023-04-28T11:33:02.226Z,980.96
2023-04-28T11:34:02.154Z,980.96
2023-04-28T11:35:02.209Z,980.95
2023-04-28T11:36:02.128Z,980.93
2023-04-28T11:37:02.121Z,980.92
2023-04-28T11:38:02.110Z,980.81
2023-04-28T11:39:02.116Z,980.87
2023-04-28T11:40:02.077Z,980.86
2023-04-28T11:41:02.086Z,980.90
2023-04-28T11:42:02.059Z,980.86
2023-04-28T11:43:02.158Z,980.78
2023-04-28T11:44:02.029Z,980.77
2023-04-28T11:45:02.073Z,980.87
2023-04-28T11:46:02.029Z,980.83
2023-04-28T11:47:02.350Z,980.86
2023-04-28T11:48:04.930Z,980.86
2023-04-28T11:49:01.988Z,980.83
2023-04-28T11:50:02.243Z,980.85
2023-04-28T11:51:01.962Z,980.82
2023-04-28T11:52:03.746Z,980.78
2023-04-28T11:53:01.953Z,980.83
2023-04-28T11:54:01.954Z,980.85
2023-04-28T11:55:02.046Z,980.82
2023-04-28T11:56:01.925Z,980.84
2023-04-28T11:57:01.938Z,980.83
2023-04-28T11:58:01.894Z,980.85
2023-04-28T11:59:03.788Z,980.78
2023-04-28T12:00:01.914Z,980.79
2023-04-28T12:01:01.893Z,980.77
2023-04-28T12:02:01.895Z,980.78
2023-04-28T12:03:01.991Z,980.82
2023-04-28T12:04:01.950Z,980.76
2023-04-28T12:05:01.892Z,980.71
2023-04-28T12:06:01.864Z,980.75
2023-04-28T12:07:01.795Z,980.77
2023-04-28T12:08:01.777Z,980.82
2023-04-28T12:09:01.776Z,980.82
2023-04-28T12:10:02.333Z,980.80
2023-04-28T12:11:01.755Z,980.71
2023-04-28T12:12:01.757Z,980.67
2023-04-28T12:13:01.736Z,980.77
2023-04-28T12:14:01.724Z,980.74
2023-04-28T12:15:01.724Z,980.74
2023-04-28T12:16:02.021Z,980.70
2023-04-28T12:17:01.696Z,980.66
2023-04-28T12:18:01.728Z,980.79
2023-04-28T12:19:01.682Z,980.77
2023-04-28T12:20:01.689Z,980.74
2023-04-28T12:21:01.648Z,980.83
2023-04-28T12:22:01.676Z,980.96
2023-04-28T12:23:01.606Z,980.87
2023-04-28T12:24:01.617Z,980.85
2023-04-28T12:25:01.599Z,980.88
2023-04-28T12:26:01.584Z,980.85
2023-04-28T12:27:01.574Z,980.90
2023-04-28T12:28:01.722Z,980.84